sensor_id;sensor_type;location;lat;lon;timestamp;P1;durP1;ratioP1;P2;durP2;ratioP2
3405;SDS011;10008;48.682;9.016;2023-07-31T00:01:07;14.20;;;13.00;;
3405;SDS011;10008;48.682;9.016;2023-07-31T00:03:33;13.80;;;12.50;;
3405;SDS011;10008;48.682;9.016;2023-07-31T00:05:58;14.03;;;12.63;;
3405;SDS011;10008;48.682;9.016;2023-07-31T00:08:24;13.73;;;12.53;;
3405;SDS011;10008;48.682;9.016;2023-07-31T00:10:53;13.43;;;12.13;;
3405;SDS011;10008;48.682;9.016;2023-07-31T00:13:18;14.40;;;12.30;;
3405;SDS011;10008;48.682;9.016;2023-07-31T00:15:44;14.60;;;12.57;;
3405;SDS011;10008;48.682;9.016;2023-07-31T00:18:10;13.50;;;12.30;;
3405;SDS011;10008;48.682;9.016;2023-07-31T00:20:36;13.20;;;11.90;;
3405;SDS011;10008;48.682;9.016;2023-07-31T00:23:01;12.90;;;11.80;;
3405;SDS011;10008;48.682;9.016;2023-07-31T00:25:27;13.80;;;12.30;;
3405;SDS011;10008;48.682;9.016;2023-07-31T00:27:53;13.53;;;12.13;;
3405;SDS011;10008;48.682;9.016;2023-07-31T00:30:18;14.50;;;12.00;;
3405;SDS011;10008;48.682;9.016;2023-07-31T00:32:44;13.27;;;12.07;;
3405;SDS011;10008;48.682;9.016;2023-07-31T00:35:10;12.90;;;11.60;;
3405;SDS011;10008;48.682;9.016;2023-07-31T00:37:35;13.00;;;11.80;;
3405;SDS011;10008;48.682;9.016;2023-07-31T00:40:01;12.87;;;11.50;;
3405;SDS011;10008;48.682;9.016;2023-07-31T00:42:29;13.00;;;11.80;;
3405;SDS011;10008;48.682;9.016;2023-07-31T00:44:54;12.73;;;11.60;;
3405;SDS011;10008;48.682;9.016;2023-07-31T00:47:20;12.90;;;11.50;;
3405;SDS011;10008;48.682;9.016;2023-07-31T00:49:46;12.97;;;11.73;;
3405;SDS011;10008;48.682;9.016;2023-07-31T00:52:13;14.20;;;12.80;;
3405;SDS011;10008;48.682;9.016;2023-07-31T00:54:38;15.60;;;14.10;;
3405;SDS011;10008;48.682;9.016;2023-07-31T00:57:05;14.40;;;13.10;;
3405;SDS011;10008;48.682;9.016;2023-07-31T00:59:32;14.80;;;13.40;;
3405;SDS011;10008;48.682;9.016;2023-07-31T01:01:58;14.33;;;12.93;;
3405;SDS011;10008;48.682;9.016;2023-07-31T01:04:24;15.47;;;13.97;;
3405;SDS011;10008;48.682;9.016;2023-07-31T01:07:05;14.30;;;12.90;;
3405;SDS011;10008;48.682;9.016;2023-07-31T01:12:28;15.70;;;14.00;;
3405;SDS011;10008;48.682;9.016;2023-07-31T01:15:02;14.93;;;13.57;;
3405;SDS011;10008;48.682;9.016;2023-07-31T01:17:29;14.80;;;13.43;;
3405;SDS011;10008;48.682;9.016;2023-07-31T01:19:55;14.17;;;12.80;;
3405;SDS011;10008;48.682;9.016;2023-07-31T01:25:41;15.20;;;13.80;;
3405;SDS011;10008;48.682;9.016;2023-07-31T01:28:14;14.33;;;13.13;;
3405;SDS011;10008;48.682;9.016;2023-07-31T01:30:47;14.70;;;13.20;;
3405;SDS011;10008;48.682;9.016;2023-07-31T01:33:17;14.60;;;13.10;;
3405;SDS011;10008;48.682;9.016;2023-07-31T01:35:46;15.10;;;12.80;;
3405;SDS011;10008;48.682;9.016;2023-07-31T01:38:13;13.97;;;12.87;;
3405;SDS011;10008;48.682;9.016;2023-07-31T01:40:43;14.30;;;13.00;;
3405;SDS011;10008;48.682;9.016;2023-07-31T01:43:09;14.53;;;13.13;;
3405;SDS011;10008;48.682;9.016;2023-07-31T01:45:34;14.80;;;13.40;;
3405;SDS011;10008;48.682;9.016;2023-07-31T01:48:00;12.47;;;11.30;;
3405;SDS011;10008;48.682;9.016;2023-07-31T01:50:26;12.63;;;11.43;;
3405;SDS011;10008;48.682;9.016;2023-07-31T01:52:51;13.63;;;11.60;;
3405;SDS011;10008;48.682;9.016;2023-07-31T01:55:17;12.97;;;11.77;;
3405;SDS011;10008;48.682;9.016;2023-07-31T01:57:43;12.87;;;11.67;;
3405;SDS011;10008;48.682;9.016;2023-07-31T02:00:09;13.83;;;11.90;;
3405;SDS011;10008;48.682;9.016;2023-07-31T02:02:38;12.40;;;11.30;;
3405;SDS011;10008;48.682;9.016;2023-07-31T02:05:04;12.50;;;11.40;;
3405;SDS011;10008;48.682;9.016;2023-07-31T02:07:30;12.60;;;11.50;;
3405;SDS011;10008;48.682;9.016;2023-07-31T02:09:56;13.33;;;11.10;;
3405;SDS011;10008;48.682;9.016;2023-07-31T02:12:21;14.17;;;12.77;;
3405;SDS011;10008;48.682;9.016;2023-07-31T02:14:47;12.80;;;11.60;;
3405;SDS011;10008;48.682;9.016;2023-07-31T02:17:13;12.83;;;11.57;;
3405;SDS011;10008;48.682;9.016;2023-07-31T02:19:39;12.87;;;11.50;;
3405;SDS011;10008;48.682;9.016;2023-07-31T02:22:04;12.80;;;11.50;;
3405;SDS011;10008;48.682;9.016;2023-07-31T02:24:30;12.47;;;11.33;;
3405;SDS011;10008;48.682;9.016;2023-07-31T02:26:57;13.50;;;12.10;;
3405;SDS011;10008;48.682;9.016;2023-07-31T02:29:23;12.43;;;11.33;;
3405;SDS011;10008;48.682;9.016;2023-07-31T02:31:48;13.17;;;11.93;;
3405;SDS011;10008;48.682;9.016;2023-07-31T02:34:15;12.90;;;11.60;;
3405;SDS011;10008;48.682;9.016;2023-07-31T02:36:40;12.83;;;11.63;;
3405;SDS011;10008;48.682;9.016;2023-07-31T02:39:06;13.00;;;11.77;;
3405;SDS011;10008;48.682;9.016;2023-07-31T02:41:32;12.53;;;11.50;;
3405;SDS011;10008;48.682;9.016;2023-07-31T02:43:58;12.40;;;11.30;;
3405;SDS011;10008;48.682;9.016;2023-07-31T02:46:24;12.80;;;11.50;;
3405;SDS011;10008;48.682;9.016;2023-07-31T02:48:50;12.73;;;11.57;;
3405;SDS011;10008;48.682;9.016;2023-07-31T02:51:16;13.13;;;12.03;;
3405;SDS011;10008;48.682;9.016;2023-07-31T02:53:42;13.03;;;11.83;;
3405;SDS011;10008;48.682;9.016;2023-07-31T02:56:08;12.70;;;11.60;;
3405;SDS011;10008;48.682;9.016;2023-07-31T02:58:33;12.83;;;11.70;;
3405;SDS011;10008;48.682;9.016;2023-07-31T03:00:59;13.53;;;12.23;;
3405;SDS011;10008;48.682;9.016;2023-07-31T03:03:25;13.77;;;12.20;;
3405;SDS011;10008;48.682;9.016;2023-07-31T03:05:51;12.90;;;11.70;;
3405;SDS011;10008;48.682;9.016;2023-07-31T03:08:18;14.00;;;12.03;;
3405;SDS011;10008;48.682;9.016;2023-07-31T03:10:43;12.80;;;11.67;;
3405;SDS011;10008;48.682;9.016;2023-07-31T03:13:09;13.20;;;12.00;;
3405;SDS011;10008;48.682;9.016;2023-07-31T03:15:35;13.23;;;12.03;;
3405;SDS011;10008;48.682;9.016;2023-07-31T03:18:00;13.60;;;12.20;;
3405;SDS011;10008;48.682;9.016;2023-07-31T03:20:26;12.77;;;11.67;;
3405;SDS011;10008;48.682;9.016;2023-07-31T03:22:52;13.43;;;12.23;;
3405;SDS011;10008;48.682;9.016;2023-07-31T03:25:18;13.07;;;11.77;;
3405;SDS011;10008;48.682;9.016;2023-07-31T03:27:43;13.90;;;12.60;;
3405;SDS011;10008;48.682;9.016;2023-07-31T03:30:09;13.40;;;12.10;;
3405;SDS011;10008;48.682;9.016;2023-07-31T03:32:35;13.33;;;12.10;;
3405;SDS011;10008;48.682;9.016;2023-07-31T03:35:01;13.10;;;11.80;;
3405;SDS011;10008;48.682;9.016;2023-07-31T03:37:27;13.20;;;11.90;;
3405;SDS011;10008;48.682;9.016;2023-07-31T03:39:52;13.63;;;12.37;;
3405;SDS011;10008;48.682;9.016;2023-07-31T03:42:18;13.40;;;12.10;;
3405;SDS011;10008;48.682;9.016;2023-07-31T03:44:44;13.63;;;12.30;;
3405;SDS011;10008;48.682;9.016;2023-07-31T03:47:09;13.30;;;12.00;;
3405;SDS011;10008;48.682;9.016;2023-07-31T03:49:36;16.00;;;12.20;;
3405;SDS011;10008;48.682;9.016;2023-07-31T03:52:02;14.37;;;12.23;;
3405;SDS011;10008;48.682;9.016;2023-07-31T03:54:28;13.50;;;12.10;;
3405;SDS011;10008;48.682;9.016;2023-07-31T03:56:54;17.40;;;12.67;;
3405;SDS011;10008;48.682;9.016;2023-07-31T03:59:19;14.60;;;12.30;;
3405;SDS011;10008;48.682;9.016;2023-07-31T04:01:45;14.43;;;12.20;;
3405;SDS011;10008;48.682;9.016;2023-07-31T04:04:11;15.50;;;12.70;;
3405;SDS011;10008;48.682;9.016;2023-07-31T04:06:36;13.90;;;12.60;;
3405;SDS011;10008;48.682;9.016;2023-07-31T04:09:02;14.10;;;12.70;;
3405;SDS011;10008;48.682;9.016;2023-07-31T04:11:28;14.73;;;13.17;;
3405;SDS011;10008;48.682;9.016;2023-07-31T04:13:54;13.97;;;12.67;;
3405;SDS011;10008;48.682;9.016;2023-07-31T04:16:19;14.07;;;12.70;;
3405;SDS011;10008;48.682;9.016;2023-07-31T04:18:45;13.47;;;12.27;;
3405;SDS011;10008;48.682;9.016;2023-07-31T04:21:11;13.70;;;12.40;;
3405;SDS011;10008;48.682;9.016;2023-07-31T04:23:37;14.40;;;13.00;;
3405;SDS011;10008;48.682;9.016;2023-07-31T04:26:03;13.40;;;12.20;;
3405;SDS011;10008;48.682;9.016;2023-07-31T04:28:28;13.50;;;12.30;;
3405;SDS011;10008;48.682;9.016;2023-07-31T04:30:56;14.23;;;12.73;;
3405;SDS011;10008;48.682;9.016;2023-07-31T04:33:22;13.33;;;12.13;;
3405;SDS011;10008;48.682;9.016;2023-07-31T04:35:51;14.40;;;12.90;;
3405;SDS011;10008;48.682;9.016;2023-07-31T04:38:18;16.83;;;13.20;;
3405;SDS011;10008;48.682;9.016;2023-07-31T04:40:45;13.90;;;12.60;;
3405;SDS011;10008;48.682;9.016;2023-07-31T04:43:11;15.10;;;13.70;;
3405;SDS011;10008;48.682;9.016;2023-07-31T04:45:37;15.47;;;13.30;;
3405;SDS011;10008;48.682;9.016;2023-07-31T04:48:02;14.90;;;13.50;;
3405;SDS011;10008;48.682;9.016;2023-07-31T04:50:28;14.73;;;13.43;;
3405;SDS011;10008;48.682;9.016;2023-07-31T04:52:55;14.73;;;13.33;;
3405;SDS011;10008;48.682;9.016;2023-07-31T04:55:21;15.50;;;14.00;;
3405;SDS011;10008;48.682;9.016;2023-07-31T04:57:47;14.97;;;13.00;;
3405;SDS011;10008;48.682;9.016;2023-07-31T05:00:13;14.80;;;13.30;;
3405;SDS011;10008;48.682;9.016;2023-07-31T05:02:38;14.70;;;13.23;;
3405;SDS011;10008;48.682;9.016;2023-07-31T05:05:05;14.70;;;13.20;;
3405;SDS011;10008;48.682;9.016;2023-07-31T05:07:31;15.97;;;13.17;;
3405;SDS011;10008;48.682;9.016;2023-07-31T05:09:57;15.40;;;13.90;;
3405;SDS011;10008;48.682;9.016;2023-07-31T05:12:23;14.60;;;13.20;;
3405;SDS011;10008;48.682;9.016;2023-07-31T05:14:48;14.90;;;13.50;;
3405;SDS011;10008;48.682;9.016;2023-07-31T05:17:14;15.53;;;14.00;;
3405;SDS011;10008;48.682;9.016;2023-07-31T05:19:40;15.20;;;13.80;;
3405;SDS011;10008;48.682;9.016;2023-07-31T05:22:06;15.00;;;13.70;;
3405;SDS011;10008;48.682;9.016;2023-07-31T05:24:31;15.63;;;14.10;;
3405;SDS011;10008;48.682;9.016;2023-07-31T05:26:58;14.30;;;12.80;;
3405;SDS011;10008;48.682;9.016;2023-07-31T05:29:24;15.17;;;13.77;;
3405;SDS011;10008;48.682;9.016;2023-07-31T05:31:50;14.80;;;13.37;;
3405;SDS011;10008;48.682;9.016;2023-07-31T05:34:15;15.30;;;13.70;;
3405;SDS011;10008;48.682;9.016;2023-07-31T05:36:41;15.37;;;13.90;;
3405;SDS011;10008;48.682;9.016;2023-07-31T05:39:07;15.10;;;13.60;;
3405;SDS011;10008;48.682;9.016;2023-07-31T05:41:33;14.90;;;13.40;;
3405;SDS011;10008;48.682;9.016;2023-07-31T05:44:00;14.97;;;13.67;;
3405;SDS011;10008;48.682;9.016;2023-07-31T05:46:26;16.33;;;14.57;;
3405;SDS011;10008;48.682;9.016;2023-07-31T05:48:52;15.60;;;14.10;;
3405;SDS011;10008;48.682;9.016;2023-07-31T05:51:17;15.07;;;13.63;;
3405;SDS011;10008;48.682;9.016;2023-07-31T05:53:43;15.57;;;14.07;;
3405;SDS011;10008;48.682;9.016;2023-07-31T05:56:09;14.10;;;12.70;;
3405;SDS011;10008;48.682;9.016;2023-07-31T05:58:34;14.60;;;13.20;;
3405;SDS011;10008;48.682;9.016;2023-07-31T06:01:00;15.00;;;12.73;;
3405;SDS011;10008;48.682;9.016;2023-07-31T06:03:26;14.83;;;12.93;;
3405;SDS011;10008;48.682;9.016;2023-07-31T06:05:51;14.50;;;13.10;;
3405;SDS011;10008;48.682;9.016;2023-07-31T06:08:17;14.60;;;13.20;;
3405;SDS011;10008;48.682;9.016;2023-07-31T06:10:43;14.70;;;13.20;;
3405;SDS011;10008;48.682;9.016;2023-07-31T06:13:08;14.90;;;13.40;;
3405;SDS011;10008;48.682;9.016;2023-07-31T06:15:34;14.83;;;13.23;;
3405;SDS011;10008;48.682;9.016;2023-07-31T06:18:00;14.67;;;13.10;;
3405;SDS011;10008;48.682;9.016;2023-07-31T06:20:27;15.30;;;13.70;;
3405;SDS011;10008;48.682;9.016;2023-07-31T06:22:53;14.77;;;13.27;;
3405;SDS011;10008;48.682;9.016;2023-07-31T06:25:19;14.33;;;12.93;;
3405;SDS011;10008;48.682;9.016;2023-07-31T06:27:45;14.80;;;13.30;;
3405;SDS011;10008;48.682;9.016;2023-07-31T06:30:11;14.40;;;13.00;;
3405;SDS011;10008;48.682;9.016;2023-07-31T06:32:37;14.60;;;13.10;;
3405;SDS011;10008;48.682;9.016;2023-07-31T06:35:03;15.47;;;13.87;;
3405;SDS011;10008;48.682;9.016;2023-07-31T06:37:29;14.73;;;13.33;;
3405;SDS011;10008;48.682;9.016;2023-07-31T06:39:54;14.90;;;13.47;;
3405;SDS011;10008;48.682;9.016;2023-07-31T06:42:20;15.10;;;13.60;;
3405;SDS011;10008;48.682;9.016;2023-07-31T06:44:46;14.70;;;12.93;;
3405;SDS011;10008;48.682;9.016;2023-07-31T06:47:12;14.80;;;13.23;;
3405;SDS011;10008;48.682;9.016;2023-07-31T06:49:38;15.30;;;13.70;;
3405;SDS011;10008;48.682;9.016;2023-07-31T06:52:03;14.93;;;13.43;;
3405;SDS011;10008;48.682;9.016;2023-07-31T06:54:29;15.93;;;13.90;;
3405;SDS011;10008;48.682;9.016;2023-07-31T06:56:55;15.07;;;13.57;;
3405;SDS011;10008;48.682;9.016;2023-07-31T06:59:21;15.00;;;13.50;;
3405;SDS011;10008;48.682;9.016;2023-07-31T07:01:46;15.30;;;13.83;;
3405;SDS011;10008;48.682;9.016;2023-07-31T07:04:13;15.23;;;13.70;;
3405;SDS011;10008;48.682;9.016;2023-07-31T07:06:39;15.20;;;13.80;;
3405;SDS011;10008;48.682;9.016;2023-07-31T07:09:04;16.50;;;14.10;;
3405;SDS011;10008;48.682;9.016;2023-07-31T07:11:31;16.23;;;14.53;;
3405;SDS011;10008;48.682;9.016;2023-07-31T07:13:57;15.43;;;13.83;;
3405;SDS011;10008;48.682;9.016;2023-07-31T07:16:23;15.27;;;13.80;;
3405;SDS011;10008;48.682;9.016;2023-07-31T07:18:48;16.67;;;14.13;;
3405;SDS011;10008;48.682;9.016;2023-07-31T07:21:14;15.00;;;13.57;;
3405;SDS011;10008;48.682;9.016;2023-07-31T07:23:41;15.20;;;13.80;;
3405;SDS011;10008;48.682;9.016;2023-07-31T07:26:07;16.80;;;13.73;;
3405;SDS011;10008;48.682;9.016;2023-07-31T07:28:33;16.07;;;14.47;;
3405;SDS011;10008;48.682;9.016;2023-07-31T07:30:59;17.53;;;14.40;;
3405;SDS011;10008;48.682;9.016;2023-07-31T07:33:25;16.60;;;14.30;;
3405;SDS011;10008;48.682;9.016;2023-07-31T07:35:50;16.47;;;14.57;;
3405;SDS011;10008;48.682;9.016;2023-07-31T07:38:16;16.20;;;14.20;;
3405;SDS011;10008;48.682;9.016;2023-07-31T07:40:44;15.60;;;14.10;;
3405;SDS011;10008;48.682;9.016;2023-07-31T07:43:11;15.60;;;14.20;;
3405;SDS011;10008;48.682;9.016;2023-07-31T07:45:37;16.43;;;14.50;;
3405;SDS011;10008;48.682;9.016;2023-07-31T07:48:03;16.00;;;14.40;;
3405;SDS011;10008;48.682;9.016;2023-07-31T07:50:29;15.03;;;13.53;;
3405;SDS011;10008;48.682;9.016;2023-07-31T07:52:54;15.60;;;14.10;;
3405;SDS011;10008;48.682;9.016;2023-07-31T07:55:20;15.33;;;13.73;;
3405;SDS011;10008;48.682;9.016;2023-07-31T07:57:46;15.80;;;14.20;;
3405;SDS011;10008;48.682;9.016;2023-07-31T08:00:12;16.40;;;14.80;;
3405;SDS011;10008;48.682;9.016;2023-07-31T08:02:41;18.07;;;16.37;;
3405;SDS011;10008;48.682;9.016;2023-07-31T08:05:07;16.33;;;14.60;;
3405;SDS011;10008;48.682;9.016;2023-07-31T08:07:33;16.33;;;14.57;;
3405;SDS011;10008;48.682;9.016;2023-07-31T08:09:59;16.27;;;14.50;;
3405;SDS011;10008;48.682;9.016;2023-07-31T08:12:24;15.97;;;14.47;;
3405;SDS011;10008;48.682;9.016;2023-07-31T08:14:50;16.63;;;14.83;;
3405;SDS011;10008;48.682;9.016;2023-07-31T08:17:17;15.90;;;14.30;;
3405;SDS011;10008;48.682;9.016;2023-07-31T08:19:42;16.27;;;14.63;;
3405;SDS011;10008;48.682;9.016;2023-07-31T08:22:09;16.33;;;14.73;;
3405;SDS011;10008;48.682;9.016;2023-07-31T08:24:35;15.83;;;14.23;;
3405;SDS011;10008;48.682;9.016;2023-07-31T08:27:00;16.70;;;15.00;;
3405;SDS011;10008;48.682;9.016;2023-07-31T08:29:26;16.37;;;14.80;;
3405;SDS011;10008;48.682;9.016;2023-07-31T08:31:52;16.87;;;15.17;;
3405;SDS011;10008;48.682;9.016;2023-07-31T08:34:17;18.77;;;15.53;;
3405;SDS011;10008;48.682;9.016;2023-07-31T08:36:43;17.03;;;15.33;;
3405;SDS011;10008;48.682;9.016;2023-07-31T08:39:10;16.67;;;15.00;;
3405;SDS011;10008;48.682;9.016;2023-07-31T08:41:39;16.57;;;14.87;;
3405;SDS011;10008;48.682;9.016;2023-07-31T08:44:04;16.97;;;15.17;;
3405;SDS011;10008;48.682;9.016;2023-07-31T08:46:32;17.40;;;15.63;;
3405;SDS011;10008;48.682;9.016;2023-07-31T08:48:59;17.60;;;15.03;;
3405;SDS011;10008;48.682;9.016;2023-07-31T08:51:25;17.20;;;15.30;;
3405;SDS011;10008;48.682;9.016;2023-07-31T08:53:52;18.90;;;15.80;;
3405;SDS011;10008;48.682;9.016;2023-07-31T08:56:18;16.53;;;14.80;;
3405;SDS011;10008;48.682;9.016;2023-07-31T08:58:44;16.40;;;14.80;;
3405;SDS011;10008;48.682;9.016;2023-07-31T09:01:12;16.77;;;15.07;;
3405;SDS011;10008;48.682;9.016;2023-07-31T09:03:38;17.33;;;15.43;;
3405;SDS011;10008;48.682;9.016;2023-07-31T09:06:05;17.60;;;15.40;;
3405;SDS011;10008;48.682;9.016;2023-07-31T09:08:32;16.87;;;15.10;;
3405;SDS011;10008;48.682;9.016;2023-07-31T09:10:59;17.50;;;15.37;;
3405;SDS011;10008;48.682;9.016;2023-07-31T09:13:28;24.60;;;15.87;;
3405;SDS011;10008;48.682;9.016;2023-07-31T09:15:55;17.07;;;15.27;;
3405;SDS011;10008;48.682;9.016;2023-07-31T09:18:20;17.20;;;15.40;;
3405;SDS011;10008;48.682;9.016;2023-07-31T09:21:06;17.23;;;15.37;;
3405;SDS011;10008;48.682;9.016;2023-07-31T09:23:45;16.90;;;15.13;;
3405;SDS011;10008;48.682;9.016;2023-07-31T09:26:29;17.33;;;15.53;;
3405;SDS011;10008;48.682;9.016;2023-07-31T09:28:59;17.10;;;15.30;;
3405;SDS011;10008;48.682;9.016;2023-07-31T09:31:58;17.57;;;15.07;;
3405;SDS011;10008;48.682;9.016;2023-07-31T09:34:18;16.70;;;15.00;;
3405;SDS011;10008;48.682;9.016;2023-07-31T09:36:48;17.40;;;15.10;;
3405;SDS011;10008;48.682;9.016;2023-07-31T09:39:15;16.60;;;14.90;;
3405;SDS011;10008;48.682;9.016;2023-07-31T09:41:43;17.37;;;15.50;;
3405;SDS011;10008;48.682;9.016;2023-07-31T09:44:10;17.93;;;16.13;;
3405;SDS011;10008;48.682;9.016;2023-07-31T09:46:36;16.93;;;15.40;;
3405;SDS011;10008;48.682;9.016;2023-07-31T09:49:03;16.70;;;15.00;;
3405;SDS011;10008;48.682;9.016;2023-07-31T09:51:30;16.40;;;14.70;;
3405;SDS011;10008;48.682;9.016;2023-07-31T09:53:56;17.40;;;15.60;;
3405;SDS011;10008;48.682;9.016;2023-07-31T09:56:21;17.73;;;16.00;;
3405;SDS011;10008;48.682;9.016;2023-07-31T09:58:49;17.63;;;15.70;;
3405;SDS011;10008;48.682;9.016;2023-07-31T10:01:15;17.73;;;15.90;;
3405;SDS011;10008;48.682;9.016;2023-07-31T10:03:41;17.03;;;15.40;;
3405;SDS011;10008;48.682;9.016;2023-07-31T10:06:09;17.10;;;15.40;;
3405;SDS011;10008;48.682;9.016;2023-07-31T10:08:35;17.67;;;15.50;;
3405;SDS011;10008;48.682;9.016;2023-07-31T10:11:02;17.50;;;15.70;;
3405;SDS011;10008;48.682;9.016;2023-07-31T10:13:29;19.90;;;17.57;;
3405;SDS011;10008;48.682;9.016;2023-07-31T10:15:58;17.07;;;15.40;;
3405;SDS011;10008;48.682;9.016;2023-07-31T10:18:26;18.47;;;15.47;;
3405;SDS011;10008;48.682;9.016;2023-07-31T10:20:52;17.60;;;15.30;;
3405;SDS011;10008;48.682;9.016;2023-07-31T10:23:19;17.80;;;16.00;;
3405;SDS011;10008;48.682;9.016;2023-07-31T10:25:46;17.80;;;16.00;;
3405;SDS011;10008;48.682;9.016;2023-07-31T10:28:13;18.90;;;16.50;;
3405;SDS011;10008;48.682;9.016;2023-07-31T10:30:39;17.30;;;15.50;;
3405;SDS011;10008;48.682;9.016;2023-07-31T10:33:06;17.53;;;15.73;;
3405;SDS011;10008;48.682;9.016;2023-07-31T10:35:33;17.00;;;15.40;;
3405;SDS011;10008;48.682;9.016;2023-07-31T10:38:11;17.40;;;15.63;;
3405;SDS011;10008;48.682;9.016;2023-07-31T10:40:37;18.10;;;16.13;;
3405;SDS011;10008;48.682;9.016;2023-07-31T10:43:03;17.53;;;15.73;;
3405;SDS011;10008;48.682;9.016;2023-07-31T10:45:34;17.87;;;15.90;;
3405;SDS011;10008;48.682;9.016;2023-07-31T10:48:02;17.73;;;15.83;;
3405;SDS011;10008;48.682;9.016;2023-07-31T10:50:30;17.97;;;16.17;;
3405;SDS011;10008;48.682;9.016;2023-07-31T10:52:59;18.30;;;16.30;;
3405;SDS011;10008;48.682;9.016;2023-07-31T10:58:07;18.20;;;16.40;;
3405;SDS011;10008;48.682;9.016;2023-07-31T11:00:41;17.63;;;15.70;;
3405;SDS011;10008;48.682;9.016;2023-07-31T11:10:38;18.63;;;16.10;;
3405;SDS011;10008;48.682;9.016;2023-07-31T11:13:04;17.33;;;15.63;;
3405;SDS011;10008;48.682;9.016;2023-07-31T11:15:30;18.30;;;15.90;;
3405;SDS011;10008;48.682;9.016;2023-07-31T11:17:56;17.97;;;16.17;;
3405;SDS011;10008;48.682;9.016;2023-07-31T11:20:25;18.43;;;16.03;;
3405;SDS011;10008;48.682;9.016;2023-07-31T11:22:51;17.10;;;15.40;;
3405;SDS011;10008;48.682;9.016;2023-07-31T11:25:17;22.10;;;19.80;;
3405;SDS011;10008;48.682;9.016;2023-07-31T11:27:43;18.10;;;16.30;;
3405;SDS011;10008;48.682;9.016;2023-07-31T11:30:10;17.83;;;15.90;;
3405;SDS011;10008;48.682;9.016;2023-07-31T11:32:36;17.23;;;15.50;;
3405;SDS011;10008;48.682;9.016;2023-07-31T11:35:02;17.73;;;15.93;;
3405;SDS011;10008;48.682;9.016;2023-07-31T11:37:43;18.27;;;16.23;;
3405;SDS011;10008;48.682;9.016;2023-07-31T11:40:09;18.47;;;16.10;;
3405;SDS011;10008;48.682;9.016;2023-07-31T11:42:36;17.40;;;15.70;;
3405;SDS011;10008;48.682;9.016;2023-07-31T11:45:05;18.50;;;16.00;;
3405;SDS011;10008;48.682;9.016;2023-07-31T11:47:34;17.50;;;15.80;;
3405;SDS011;10008;48.682;9.016;2023-07-31T11:50:04;17.77;;;16.00;;
3405;SDS011;10008;48.682;9.016;2023-07-31T11:52:34;17.67;;;15.77;;
3405;SDS011;10008;48.682;9.016;2023-07-31T11:55:03;16.87;;;15.13;;
3405;SDS011;10008;48.682;9.016;2023-07-31T11:57:31;17.23;;;15.40;;
3405;SDS011;10008;48.682;9.016;2023-07-31T11:59:57;18.07;;;15.30;;
3405;SDS011;10008;48.682;9.016;2023-07-31T12:02:23;17.50;;;15.60;;
3405;SDS011;10008;48.682;9.016;2023-07-31T12:04:49;17.87;;;15.70;;
3405;SDS011;10008;48.682;9.016;2023-07-31T12:07:15;18.47;;;16.07;;
3405;SDS011;10008;48.682;9.016;2023-07-31T12:09:50;17.80;;;15.93;;
3405;SDS011;10008;48.682;9.016;2023-07-31T12:12:21;17.67;;;15.97;;
3405;SDS011;10008;48.682;9.016;2023-07-31T12:14:48;17.47;;;15.70;;
3405;SDS011;10008;48.682;9.016;2023-07-31T12:17:14;17.93;;;16.00;;
3405;SDS011;10008;48.682;9.016;2023-07-31T12:19:40;17.87;;;15.97;;
3405;SDS011;10008;48.682;9.016;2023-07-31T12:22:15;17.80;;;16.00;;
3405;SDS011;10008;48.682;9.016;2023-07-31T12:24:42;17.50;;;15.70;;
3405;SDS011;10008;48.682;9.016;2023-07-31T12:27:12;18.80;;;16.20;;
3405;SDS011;10008;48.682;9.016;2023-07-31T12:29:39;18.50;;;16.50;;
3405;SDS011;10008;48.682;9.016;2023-07-31T12:35:07;17.20;;;15.50;;
3405;SDS011;10008;48.682;9.016;2023-07-31T12:37:33;16.80;;;15.10;;
3405;SDS011;10008;48.682;9.016;2023-07-31T12:39:59;17.00;;;15.00;;
3405;SDS011;10008;48.682;9.016;2023-07-31T12:42:30;17.13;;;15.40;;
3405;SDS011;10008;48.682;9.016;2023-07-31T12:44:56;19.70;;;15.10;;
3405;SDS011;10008;48.682;9.016;2023-07-31T12:47:22;17.70;;;15.20;;
3405;SDS011;10008;48.682;9.016;2023-07-31T12:49:48;17.30;;;15.60;;
3405;SDS011;10008;48.682;9.016;2023-07-31T12:52:13;17.00;;;15.30;;
3405;SDS011;10008;48.682;9.016;2023-07-31T12:54:39;16.70;;;15.10;;
3405;SDS011;10008;48.682;9.016;2023-07-31T12:57:05;17.50;;;15.60;;
3405;SDS011;10008;48.682;9.016;2023-07-31T12:59:31;16.43;;;14.87;;
3405;SDS011;10008;48.682;9.016;2023-07-31T13:01:56;16.40;;;14.80;;
3405;SDS011;10008;48.682;9.016;2023-07-31T13:04:22;18.40;;;15.53;;
3405;SDS011;10008;48.682;9.016;2023-07-31T13:06:48;17.30;;;15.60;;
3405;SDS011;10008;48.682;9.016;2023-07-31T13:09:13;18.17;;;16.37;;
3405;SDS011;10008;48.682;9.016;2023-07-31T13:11:42;17.40;;;15.70;;
3405;SDS011;10008;48.682;9.016;2023-07-31T13:14:08;17.27;;;15.60;;
3405;SDS011;10008;48.682;9.016;2023-07-31T13:16:34;17.50;;;15.80;;
3405;SDS011;10008;48.682;9.016;2023-07-31T13:19:00;17.80;;;15.97;;
3405;SDS011;10008;48.682;9.016;2023-07-31T13:21:26;17.10;;;15.40;;
3405;SDS011;10008;48.682;9.016;2023-07-31T13:23:51;16.70;;;15.10;;
3405;SDS011;10008;48.682;9.016;2023-07-31T13:26:17;17.57;;;15.70;;
3405;SDS011;10008;48.682;9.016;2023-07-31T13:28:43;19.00;;;16.17;;
3405;SDS011;10008;48.682;9.016;2023-07-31T13:31:09;17.50;;;15.80;;
3405;SDS011;10008;48.682;9.016;2023-07-31T13:33:36;17.40;;;15.63;;
3405;SDS011;10008;48.682;9.016;2023-07-31T13:36:02;17.80;;;15.73;;
3405;SDS011;10008;48.682;9.016;2023-07-31T13:38:28;18.70;;;16.70;;
3405;SDS011;10008;48.682;9.016;2023-07-31T13:40:53;17.30;;;15.50;;
3405;SDS011;10008;48.682;9.016;2023-07-31T13:43:19;16.83;;;15.20;;
3405;SDS011;10008;48.682;9.016;2023-07-31T13:45:45;17.53;;;15.73;;
3405;SDS011;10008;48.682;9.016;2023-07-31T13:48:11;17.20;;;15.60;;
3405;SDS011;10008;48.682;9.016;2023-07-31T13:50:36;18.10;;;15.40;;
3405;SDS011;10008;48.682;9.016;2023-07-31T13:53:02;18.10;;;15.60;;
3405;SDS011;10008;48.682;9.016;2023-07-31T13:55:27;17.60;;;15.00;;
3405;SDS011;10008;48.682;9.016;2023-07-31T13:57:53;17.67;;;15.93;;
3405;SDS011;10008;48.682;9.016;2023-07-31T14:00:19;17.70;;;15.80;;
3405;SDS011;10008;48.682;9.016;2023-07-31T14:02:44;17.37;;;15.57;;
3405;SDS011;10008;48.682;9.016;2023-07-31T14:05:10;17.40;;;15.70;;
3405;SDS011;10008;48.682;9.016;2023-07-31T14:07:36;16.80;;;15.00;;
3405;SDS011;10008;48.682;9.016;2023-07-31T14:10:02;17.27;;;15.53;;
3405;SDS011;10008;48.682;9.016;2023-07-31T14:12:29;17.70;;;16.00;;
3405;SDS011;10008;48.682;9.016;2023-07-31T14:14:55;18.77;;;15.90;;
3405;SDS011;10008;48.682;9.016;2023-07-31T14:17:21;17.43;;;15.63;;
3405;SDS011;10008;48.682;9.016;2023-07-31T14:19:47;16.50;;;14.93;;
3405;SDS011;10008;48.682;9.016;2023-07-31T14:22:12;16.77;;;15.10;;
3405;SDS011;10008;48.682;9.016;2023-07-31T14:24:38;17.20;;;15.50;;
3405;SDS011;10008;48.682;9.016;2023-07-31T14:27:04;17.90;;;16.30;;
3405;SDS011;10008;48.682;9.016;2023-07-31T14:29:30;17.03;;;15.23;;
3405;SDS011;10008;48.682;9.016;2023-07-31T14:31:55;16.40;;;14.83;;
3405;SDS011;10008;48.682;9.016;2023-07-31T14:34:21;16.33;;;14.73;;
3405;SDS011;10008;48.682;9.016;2023-07-31T14:36:47;16.53;;;14.90;;
3405;SDS011;10008;48.682;9.016;2023-07-31T14:39:13;16.50;;;14.90;;
3405;SDS011;10008;48.682;9.016;2023-07-31T14:41:39;16.00;;;14.40;;
3405;SDS011;10008;48.682;9.016;2023-07-31T14:44:04;16.23;;;14.63;;
3405;SDS011;10008;48.682;9.016;2023-07-31T14:46:30;16.70;;;15.00;;
3405;SDS011;10008;48.682;9.016;2023-07-31T14:48:56;16.70;;;15.07;;